createdAt,value
2023-04-10T00:00:31.639Z,99501.20
2023-04-10T00:02:54.807Z,99498.35
2023-04-10T00:04:57.933Z,99495.13
2023-04-10T00:07:00.650Z,99494.55
2023-04-10T00:09:03.605Z,99496.88
2023-04-10T00:11:07.687Z,99495.66
2023-04-10T00:13:15.931Z,99494.48
2023-04-10T00:15:18.875Z,99492.90
2023-04-10T00:17:21.689Z,99493.45
2023-04-10T00:19:24.802Z,99490.59
2023-04-10T00:21:27.670Z,99485.06
2023-04-10T00:23:32.761Z,99479.61
2023-04-10T00:25:35.380Z,99475.94
2023-04-10T00:27:37.993Z,99473.59
2023-04-10T00:29:40.939Z,99469.85
2023-04-10T00:31:43.712Z,99466.34
2023-04-10T00:33:46.286Z,99472.03
2023-04-10T00:35:49.229Z,99471.25
2023-04-10T00:37:54.499Z,99474.86
2023-04-10T00:39:57.239Z,99472.47
2023-04-10T00:42:01.510Z,99472.34
2023-04-10T00:44:04.444Z,99473.98
2023-04-10T00:46:07.364Z,99473.64
2023-04-10T00:48:10.395Z,99472.58
2023-04-10T00:50:13.118Z,99469.41
2023-04-10T00:52:16.588Z,99469.27
2023-04-10T00:54:20.067Z,99465.38
2023-04-10T00:56:24.452Z,99463.90
2023-04-10T00:58:27.107Z,99470.31
2023-04-10T01:00:29.907Z,99472.70
2023-04-10T01:02:32.788Z,99478.17
2023-04-10T01:04:35.638Z,99477.77
2023-04-10T01:06:59.652Z,99477.24
2023-04-10T01:09:10.243Z,99477.39
2023-04-10T01:11:49.087Z,99479.74
2023-04-10T01:14:12.685Z,99480.48
2023-04-10T01:16:28.752Z,99483.55
2023-04-10T01:18:39.092Z,99479.14
2023-04-10T01:20:42.490Z,99479.80
2023-04-10T01:22:54.393Z,99480.50
2023-04-10T01:25:23.978Z,99482.83
2023-04-10T01:28:08.422Z,99482.58
2023-04-10T01:30:17.863Z,99484.41
2023-04-10T01:32:22.534Z,99482.80
2023-04-10T01:34:46.240Z,99478.44
2023-04-10T01:37:13.819Z,99482.45
2023-04-10T01:39:19.541Z,99480.58
2023-04-10T01:41:23.444Z,99480.34
2023-04-10T01:43:29.078Z,99482.12
2023-04-10T01:45:31.772Z,99475.52
2023-04-10T01:47:35.404Z,99477.60
2023-04-10T01:49:44.394Z,99478.23
2023-04-10T01:51:48.989Z,99479.58
2023-04-10T01:53:52.658Z,99475.48
2023-04-10T01:56:00.426Z,99480.65
2023-04-10T01:58:04.848Z,99485.36
2023-04-10T02:00:09.308Z,99479.58
2023-04-10T02:02:17.672Z,99482.89
2023-04-10T02:04:20.516Z,99482.86
2023-04-10T02:06:50.530Z,99480.18
2023-04-10T02:08:59.082Z,99481.77
2023-04-10T02:11:09.101Z,99480.56
2023-04-10T02:13:14.700Z,99481.95
2023-04-10T02:15:23.459Z,99479.13
2023-04-10T02:17:29.689Z,99482.02
2023-04-10T02:19:33.388Z,99478.61
2023-04-10T02:21:37.639Z,99478.00
2023-04-10T02:23:40.443Z,99482.55
2023-04-10T02:25:43.088Z,99483.66
2023-04-10T02:27:45.672Z,99485.30
2023-04-10T02:29:48.240Z,99491.39
2023-04-10T02:31:50.952Z,99491.73
2023-04-10T02:33:55.480Z,99490.56
2023-04-10T02:36:00.789Z,99489.48
2023-04-10T02:38:04.801Z,99491.10
2023-04-10T02:40:09.219Z,99486.11
2023-04-10T02:42:18.318Z,99489.00
2023-04-10T02:44:21.461Z,99493.13
2023-04-10T02:46:26.172Z,99487.05
2023-04-10T02:48:31.140Z,99482.58
2023-04-10T02:50:36.677Z,99486.51
2023-04-10T02:52:39.430Z,99483.56
2023-04-10T02:54:43.205Z,99485.84
2023-04-10T02:56:46.293Z,99486.34
2023-04-10T02:58:49.028Z,99488.25
2023-04-10T03:00:52.333Z,99484.55
2023-04-10T03:03:15.635Z,99483.17
2023-04-10T03:05:22.247Z,99481.86
2023-04-10T03:07:24.929Z,99480.96
2023-04-10T03:09:27.717Z,99475.99
2023-04-10T03:11:30.619Z,99477.91
2023-04-10T03:13:33.247Z,99480.60
2023-04-10T03:15:36.410Z,99480.85
2023-04-10T03:17:39.077Z,99483.63
2023-04-10T03:19:42.349Z,99478.49
2023-04-10T03:21:46.365Z,99479.86
2023-04-10T03:23:49.211Z,99477.96
2023-04-10T03:25:53.902Z,99478.97
2023-04-10T03:27:58.462Z,99478.91
2023-04-10T03:30:02.597Z,99474.73
2023-04-10T03:32:09.182Z,99472.40
2023-04-10T03:34:11.785Z,99472.30
2023-04-10T03:36:14.925Z,99469.61
2023-04-10T03:38:17.584Z,99471.98
2023-04-10T03:40:20.232Z,99468.09
2023-04-10T03:42:23.067Z,99466.43
2023-04-10T03:44:26.322Z,99468.89
2023-04-10T03:46:29.899Z,99472.88
2023-04-10T03:48:33.514Z,99470.72
2023-04-10T03:50:36.211Z,99474.91
2023-04-10T03:52:40.167Z,99478.65
2023-04-10T03:54:46.554Z,99477.66
2023-04-10T03:56:58.306Z,99479.61
2023-04-10T03:59:01.840Z,99476.03
2023-04-10T04:01:06.217Z,99473.35
2023-04-10T04:03:13.222Z,99472.80
2023-04-10T04:05:34.655Z,99473.77
2023-04-10T04:07:59.311Z,99476.71
2023-04-10T04:10:13.553Z,99476.17
2023-04-10T04:12:51.463Z,99479.54
2023-04-10T04:15:12.555Z,99483.27
2023-04-10T04:17:29.563Z,99481.80
2023-04-10T04:19:38.041Z,99480.18
2023-04-10T04:22:07.699Z,99483.30
2023-04-10T04:24:35.244Z,99487.59
2023-04-10T04:26:43.151Z,99486.50
2023-04-10T04:29:03.119Z,99487.83
2023-04-10T04:31:19.304Z,99487.86
2023-04-10T04:33:47.402Z,99485.14
2023-04-10T04:36:24.712Z,99483.23
2023-04-10T04:38:39.616Z,99487.71
2023-04-10T04:41:04.717Z,99489.84
2023-04-10T04:43:17.133Z,99489.58
2023-04-10T04:45:32.208Z,99496.11
2023-04-10T04:47:48.790Z,99494.39
2023-04-10T04:50:02.204Z,99492.67
2023-04-10T04:52:37.171Z,99500.21
2023-04-10T04:54:55.717Z,99502.70
2023-04-10T04:57:25.262Z,99504.70
2023-04-10T04:59:55.921Z,99514.81
2023-04-10T05:02:18.718Z,99507.41
2023-04-10T05:04:45.840Z,99506.08
2023-04-10T05:06:58.258Z,99498.87
2023-04-10T05:09:19.227Z,99503.86
2023-04-10T05:11:39.214Z,99507.69
2023-04-10T05:13:55.167Z,99500.80
2023-04-10T05:16:16.732Z,99495.06
2023-04-10T05:18:39.728Z,99491.08
2023-04-10T05:20:51.588Z,99484.27
2023-04-10T05:23:13.907Z,99484.03
2023-04-10T05:25:35.416Z,99480.84
2023-04-10T05:27:53.149Z,99477.00
2023-04-10T05:30:06.560Z,99475.31
2023-04-10T05:32:40.642Z,99478.54
2023-04-10T05:35:02.719Z,99480.11
2023-04-10T05:37:28.378Z,99475.09
2023-04-10T05:39:37.847Z,99480.32
2023-04-10T05:41:59.111Z,99479.14
2023-04-10T05:44:06.285Z,99477.64
2023-04-10T05:46:23.058Z,99479.16
2023-04-10T05:48:48.851Z,99482.20
2023-04-10T05:51:05.945Z,99484.34
2023-04-10T05:53:33.928Z,99490.75
2023-04-10T05:56:02.674Z,99487.14
2023-04-10T05:58:23.617Z,99486.91
2023-04-10T06:00:57.506Z,99485.41
2023-04-10T06:03:14.915Z,99478.58
2023-04-10T06:05:25.143Z,99477.90
2023-04-10T06:07:33.443Z,99477.08
2023-04-10T06:09:36.106Z,99477.45
2023-04-10T06:11:41.664Z,99477.94
2023-04-10T06:13:44.601Z,99473.39
2023-04-10T06:15:47.657Z,99476.80
2023-04-10T06:17:50.474Z,99476.80
2023-04-10T06:19:53.313Z,99478.20
2023-04-10T06:21:56.218Z,99479.48
2023-04-10T06:23:58.873Z,99478.17
2023-04-10T06:26:05.876Z,99474.80
2023-04-10T06:28:11.909Z,99475.60
2023-04-10T06:30:15.657Z,99473.98
2023-04-10T06:32:19.011Z,99477.25
2023-04-10T06:34:22.830Z,99480.17
2023-04-10T06:36:37.884Z,99473.38
2023-04-10T06:38:41.768Z,99482.08
2023-04-10T06:40:44.459Z,99477.54
2023-04-10T06:42:47.108Z,99477.17
2023-04-10T06:45:04.964Z,99480.20
2023-04-10T06:47:09.134Z,99480.83
2023-04-10T06:49:11.980Z,99479.20
2023-04-10T06:51:15.279Z,99479.48
2023-04-10T06:53:18.905Z,99475.05
2023-04-10T06:55:22.335Z,99477.96
2023-04-10T06:57:25.316Z,99476.74
2023-04-10T06:59:29.089Z,99476.23
2023-04-10T07:01:32.805Z,99477.05
2023-04-10T07:03:35.928Z,99480.88
2023-04-10T07:05:40.831Z,99477.95
2023-04-10T07:07:45.066Z,99475.59
2023-04-10T07:09:47.810Z,99479.23
2023-04-10T07:11:50.392Z,99476.30
2023-04-10T07:13:58.390Z,99470.01
2023-04-10T07:16:02.034Z,99465.64
2023-04-10T07:18:06.232Z,99467.83
2023-04-10T07:20:09.424Z,99465.59
2023-04-10T07:22:12.578Z,99456.79
2023-04-10T07:24:15.663Z,99456.01
2023-04-10T07:26:18.523Z,99451.09
2023-04-10T07:28:21.671Z,99446.76
2023-04-10T07:30:24.412Z,99447.06
2023-04-10T07:32:27.254Z,99448.45
2023-04-10T07:34:30.982Z,99443.42
2023-04-10T07:36:33.903Z,99444.46
2023-04-10T07:38:36.671Z,99437.20
2023-04-10T07:40:39.260Z,99438.52
2023-04-10T07:42:42.306Z,99437.66
2023-04-10T07:44:44.905Z,99435.52
2023-04-10T07:46:47.628Z,99435.75
2023-04-10T07:48:50.724Z,99439.02
2023-04-10T07:50:53.367Z,99438.51
2023-04-10T07:52:56.570Z,99445.06
2023-04-10T07:55:02.721Z,99442.13
2023-04-10T07:57:05.363Z,99436.56
2023-04-10T07:59:08.567Z,99434.36
2023-04-10T08:01:11.608Z,99427.47
2023-04-10T08:03:15.940Z,99422.27
2023-04-10T08:05:18.933Z,99420.35
2023-04-10T08:07:23.004Z,99420.59
2023-04-10T08:09:25.769Z,99415.14
2023-04-10T08:11:35.928Z,99409.98
2023-04-10T08:13:40.381Z,99411.24
2023-04-10T08:15:43.209Z,99412.02
2023-04-10T08:17:46.152Z,99412.08
2023-04-10T08:19:48.765Z,99416.96
2023-04-10T08:21:51.559Z,99414.11
2023-04-10T08:23:56.972Z,99414.77
2023-04-10T08:25:59.940Z,99411.73
2023-04-10T08:28:02.733Z,99412.48
2023-04-10T08:30:05.904Z,99408.16
2023-04-10T08:32:08.710Z,99408.30
2023-04-10T08:34:11.632Z,99406.67
2023-04-10T08:36:20.149Z,99409.60
2023-04-10T08:38:25.059Z,99410.60
2023-04-10T08:40:27.913Z,99415.42
2023-04-10T08:42:31.925Z,99415.73
2023-04-10T08:44:37.154Z,99414.07
2023-04-10T08:46:43.702Z,99410.45
2023-04-10T08:48:58.454Z,99410.48
2023-04-10T08:51:04.077Z,99413.17
2023-04-10T08:53:14.523Z,99413.11
2023-04-10T08:55:17.582Z,99407.20
2023-04-10T08:57:20.902Z,99406.10
2023-04-10T08:59:23.602Z,99403.24
2023-04-10T09:01:26.398Z,99395.29
2023-04-10T09:03:29.741Z,99392.77
2023-04-10T09:05:33.064Z,99385.77
2023-04-10T09:07:35.661Z,99381.34
2023-04-10T09:09:38.289Z,99380.42
2023-04-10T09:11:52.981Z,99377.18
2023-04-10T09:13:55.869Z,99379.11
2023-04-10T09:15:59.607Z,99373.04
2023-04-10T09:18:03.753Z,99375.02
2023-04-10T09:20:22.318Z,99368.23
2023-04-10T09:22:32.958Z,99362.27
2023-04-10T09:24:39.975Z,99360.48
2023-04-10T09:26:45.383Z,99359.10
2023-04-10T09:28:56.439Z,99358.13
2023-04-10T09:30:59.154Z,99355.39
2023-04-10T09:33:03.524Z,99355.27
2023-04-10T09:35:08.628Z,99355.31
2023-04-10T09:37:12.755Z,99353.16
2023-04-10T09:39:15.717Z,99348.42
2023-04-10T09:41:18.398Z,99342.89
2023-04-10T09:43:24.094Z,99343.15
2023-04-10T09:45:27.018Z,99335.80
2023-04-10T09:47:30.316Z,99334.02
2023-04-10T09:49:45.571Z,99332.30
2023-04-10T09:51:50.258Z,99330.07
2023-04-10T09:53:53.185Z,99330.41
2023-04-10T09:55:57.222Z,99325.87
2023-04-10T09:58:00.623Z,99320.75
2023-04-10T10:00:07.036Z,99318.67
2023-04-10T10:02:11.052Z,99311.05
2023-04-10T10:04:17.353Z,99306.91
2023-04-10T10:06:20.918Z,99292.89
2023-04-10T10:08:24.766Z,99288.05
2023-04-10T10:10:27.507Z,99283.87
2023-04-10T10:12:40.545Z,99280.72
2023-04-10T10:14:51.098Z,99273.41
2023-04-10T10:17:00.480Z,99272.52
2023-04-10T10:19:12.789Z,99265.65
2023-04-10T10:21:17.259Z,99261.48
2023-04-10T10:23:21.736Z,99264.28
2023-04-10T10:25:26.067Z,99257.73
2023-04-10T10:27:32.709Z,99249.03
2023-04-10T10:29:37.010Z,99251.25
2023-04-10T10:31:40.692Z,99249.50
2023-04-10T10:33:46.243Z,99245.45
2023-04-10T10:35:54.561Z,99242.72
2023-04-10T10:38:00.495Z,99239.77
2023-04-10T10:40:14.440Z,99239.74
2023-04-10T10:42:32.188Z,99238.73
2023-04-10T10:44:47.457Z,99234.60
2023-04-10T10:47:01.206Z,99232.20
2023-04-10T10:49:04.195Z,99225.72
2023-04-10T10:51:07.130Z,99224.88
2023-04-10T10:53:33.697Z,99218.33
2023-04-10T10:55:39.518Z,99219.02
2023-04-10T10:57:50.275Z,99218.35
2023-04-10T10:59:53.330Z,99213.00
2023-04-10T11:02:18.406Z,99205.09
2023-04-10T11:04:47.086Z,99199.30
2023-04-10T11:06:52.196Z,99195.61
2023-04-10T11:08:55.124Z,99197.11
2023-04-10T11:11:05.600Z,99195.48
2023-04-10T11:13:18.554Z,99185.27
2023-04-10T11:15:24.823Z,99183.30
2023-04-10T11:17:53.988Z,99183.22
2023-04-10T11:19:59.568Z,99179.39
2023-04-10T11:22:07.364Z,99176.54
2023-04-10T11:24:09.934Z,99174.52
2023-04-10T11:26:12.682Z,99173.69
2023-04-10T11:28:34.350Z,99167.13
2023-04-10T11:30:37.216Z,99167.58
2023-04-10T11:32:43.334Z,99163.70
2023-04-10T11:34:46.150Z,99158.45
2023-04-10T11:36:48.953Z,99154.72
2023-04-10T11:38:58.928Z,99153.29
2023-04-10T11:41:04.480Z,99148.48
2023-04-10T11:43:14.557Z,99146.14
2023-04-10T11:45:28.578Z,99141.91
2023-04-10T11:47:31.214Z,99144.30
2023-04-10T11:49:34.962Z,99139.11
2023-04-10T11:51:39.721Z,99136.63
2023-04-10T11:53:42.863Z,99132.95
2023-04-10T11:55:47.001Z,99134.31
2023-04-10T11:57:49.787Z,99137.45
2023-04-10T11:59:52.412Z,99133.88
2023-04-10T12:02:07.362Z,99127.12
2023-04-10T12:04:31.019Z,99124.33
2023-04-10T12:06:33.755Z,99123.92
2023-04-10T12:08:39.314Z,99120.42
2023-04-10T12:10:48.914Z,99115.29
2023-04-10T12:12:52.427Z,99116.31
2023-04-10T12:14:55.414Z,99112.83
2023-04-10T12:16:59.365Z,99111.27
2023-04-10T12:19:02.514Z,99099.52
2023-04-10T12:21:08.137Z,99098.61
2023-04-10T12:23:11.714Z,99089.35
2023-04-10T12:25:15.085Z,99082.51
2023-04-10T12:27:29.007Z,99079.41
2023-04-10T12:29:32.098Z,99074.69
2023-04-10T12:31:37.328Z,99075.59
2023-04-10T12:33:40.328Z,99079.13
2023-04-10T12:35:42.971Z,99075.34
2023-04-10T12:37:52.524Z,99071.84
2023-04-10T12:40:06.607Z,99065.54
2023-04-10T12:42:19.698Z,99056.17
2023-04-10T12:44:22.920Z,99053.77
2023-04-10T12:46:28.460Z,99053.59
2023-04-10T12:48:31.494Z,99050.98
2023-04-10T12:50:34.278Z,99048.54
2023-04-10T12:52:39.343Z,99047.41
2023-04-10T12:54:42.038Z,99044.55
2023-04-10T12:56:47.605Z,99042.89
2023-04-10T12:59:08.253Z,99043.16
2023-04-10T13:01:12.321Z,99035.02
2023-04-10T13:03:15.791Z,99034.77
2023-04-10T13:05:19.262Z,99035.90
2023-04-10T13:07:27.283Z,99036.33
2023-04-10T13:09:30.064Z,99034.88
2023-04-10T13:11:32.706Z,99025.98
2023-04-10T13:13:35.601Z,99022.77
2023-04-10T13:15:39.021Z,99019.34
2023-04-10T13:17:41.934Z,99009.28
2023-04-10T13:19:44.708Z,99000.59
2023-04-10T13:21:47.368Z,98994.50
2023-04-10T13:23:49.908Z,98989.71
2023-04-10T13:25:53.668Z,98980.44
2023-04-10T13:27:56.473Z,98981.71
2023-04-10T13:29:59.111Z,98981.03
2023-04-10T13:32:05.265Z,98977.25
2023-04-10T13:34:08.014Z,98980.77
2023-04-10T13:36:10.772Z,98975.98
2023-04-10T13:38:13.672Z,98967.46
2023-04-10T13:40:16.288Z,98963.73
2023-04-10T13:42:19.174Z,98962.02
2023-04-10T13:44:21.847Z,98959.31
2023-04-10T13:46:24.467Z,98951.89
2023-04-10T13:48:37.498Z,98949.77
2023-04-10T13:50:43.426Z,98936.73
2023-04-10T13:52:46.950Z,98937.41
2023-04-10T13:54:49.597Z,98928.89
2023-04-10T13:56:54.561Z,98924.66
2023-04-10T13:58:57.456Z,98927.60
2023-04-10T14:01:01.501Z,98925.75
2023-04-10T14:03:04.381Z,98924.68
2023-04-10T14:05:07.714Z,98925.39
2023-04-10T14:07:10.511Z,98924.38
2023-04-10T14:09:13.073Z,98924.30
2023-04-10T14:11:15.833Z,98923.02
2023-04-10T14:13:18.804Z,98924.02
2023-04-10T14:15:21.456Z,98917.31
2023-04-10T14:17:24.754Z,98915.79
2023-04-10T14:19:27.691Z,98912.11
2023-04-10T14:21:31.596Z,98911.27
2023-04-10T14:23:34.531Z,98909.50
2023-04-10T14:25:37.196Z,98907.80
2023-04-10T14:27:39.884Z,98902.06
2023-04-10T14:29:47.643Z,98902.41
2023-04-10T14:31:58.688Z,98900.77
2023-04-10T14:34:01.386Z,98904.08
2023-04-10T14:36:04.421Z,98898.83
2023-04-10T14:38:07.209Z,98899.65
2023-04-10T14:40:10.287Z,98893.45
2023-04-10T14:42:12.864Z,98892.46
2023-04-10T14:44:15.510Z,98890.52
2023-04-10T14:46:18.331Z,98889.58
2023-04-10T14:48:21.408Z,98886.71
2023-04-10T14:50:24.256Z,98883.57
2023-04-10T14:52:26.804Z,98886.77
2023-04-10T14:54:29.386Z,98881.98
2023-04-10T14:56:32.911Z,98880.80
2023-04-10T14:58:35.783Z,98878.17
2023-04-10T15:00:38.410Z,98875.06
2023-04-10T15:02:41.308Z,98877.05
2023-04-10T15:04:44.331Z,98873.34
2023-04-10T15:06:46.959Z,98873.46
2023-04-10T15:08:49.715Z,98872.02
2023-04-10T15:10:52.746Z,98864.30
2023-04-10T15:12:55.301Z,98862.14
2023-04-10T15:14:58.631Z,98862.05
2023-04-10T15:17:01.256Z,98860.73
2023-04-10T15:19:04.058Z,98854.20
2023-04-10T15:21:06.761Z,98849.80
2023-04-10T15:23:10.832Z,98847.20
2023-04-10T15:25:13.409Z,98843.79
2023-04-10T15:27:16.133Z,98837.06
2023-04-10T15:29:18.736Z,98833.52
2023-04-10T15:31:24.445Z,98825.70
2023-04-10T15:33:27.495Z,98825.05
2023-04-10T15:35:34.254Z,98819.61
2023-04-10T15:37:37.497Z,98817.51
2023-04-10T15:39:40.155Z,98815.98
2023-04-10T15:41:42.791Z,98815.52
2023-04-10T15:43:45.442Z,98818.66
2023-04-10T15:45:48.014Z,98816.82
2023-04-10T15:47:50.813Z,98815.11
2023-04-10T15:49:53.498Z,98809.72
2023-04-10T15:51:56.056Z,98810.20
2023-04-10T15:53:59.118Z,98808.63
2023-04-10T15:56:08.702Z,98807.48
2023-04-10T15:58:14.638Z,98801.83
2023-04-10T16:00:17.815Z,98800.20
2023-04-10T16:02:20.546Z,98801.21
2023-04-10T16:04:23.831Z,98805.23
2023-04-10T16:06:28.109Z,98803.76
2023-04-10T16:08:30.769Z,98798.41
2023-04-10T16:10:34.293Z,98798.31
2023-04-10T16:12:37.949Z,98794.02
2023-04-10T16:14:40.593Z,98792.96
2023-04-10T16:16:43.234Z,98784.56
2023-04-10T16:18:46.466Z,98783.08
2023-04-10T16:20:49.115Z,98783.05
2023-04-10T16:22:51.844Z,98777.91
2023-04-10T16:24:59.998Z,98775.61
2023-04-10T16:27:04.563Z,98774.38
2023-04-10T16:29:07.901Z,98769.61
2023-04-10T16:31:12.061Z,98772.83
2023-04-10T16:33:14.903Z,98760.75
2023-04-10T16:35:19.167Z,98759.20
2023-04-10T16:37:21.903Z,98757.92
2023-04-10T16:39:24.578Z,98748.18
2023-04-10T16:41:27.436Z,98741.46
2023-04-10T16:43:30.485Z,98733.83
2023-04-10T16:45:33.407Z,98731.05
2023-04-10T16:47:36.284Z,98732.46
2023-04-10T16:49:41.061Z,98729.02
2023-04-10T16:51:44.093Z,98729.69
2023-04-10T16:53:47.686Z,98716.55
2023-04-10T16:56:01.491Z,98720.94
2023-04-10T16:58:06.353Z,98715.87
2023-04-10T17:00:09.936Z,98717.43
2023-04-10T17:02:12.530Z,98712.73
2023-04-10T17:04:16.904Z,98711.70
2023-04-10T17:06:20.019Z,98709.33
2023-04-10T17:08:22.693Z,98702.75
2023-04-10T17:10:25.567Z,98701.77
2023-04-10T17:12:28.312Z,98695.79
2023-04-10T17:14:31.183Z,98692.31
2023-04-10T17:16:33.840Z,98694.56
2023-04-10T17:18:36.874Z,98692.98
2023-04-10T17:20:40.820Z,98689.34
2023-04-10T17:22:43.646Z,98683.36
2023-04-10T17:24:46.474Z,98686.37
2023-04-10T17:26:49.590Z,98680.33
2023-04-10T17:28:52.559Z,98679.38
2023-04-10T17:30:55.506Z,98670.70
2023-04-10T17:32:59.292Z,98667.29
2023-04-10T17:35:02.088Z,98666.92
2023-04-10T17:37:04.941Z,98672.27
2023-04-10T17:39:07.848Z,98673.48
2023-04-10T17:41:14.694Z,98677.77
2023-04-10T17:43:17.352Z,98675.78
2023-04-10T17:45:20.153Z,98681.55
2023-04-10T17:47:22.894Z,98685.09
2023-04-10T17:49:25.790Z,98688.13
2023-04-10T17:51:28.808Z,98687.98
2023-04-10T17:53:32.295Z,98689.91
2023-04-10T17:55:40.176Z,98688.48
2023-04-10T17:57:42.789Z,98682.45
2023-04-10T17:59:45.640Z,98678.05
2023-04-10T18:01:48.477Z,98670.48
2023-04-10T18:03:51.423Z,98666.17
2023-04-10T18:05:54.203Z,98665.71
2023-04-10T18:07:57.170Z,98661.69
2023-04-10T18:10:00.020Z,98662.55
2023-04-10T18:12:10.197Z,98662.95
2023-04-10T18:14:13.402Z,98660.92
2023-04-10T18:16:17.658Z,98653.20
2023-04-10T18:18:20.907Z,98646.74
2023-04-10T18:20:23.550Z,98648.71
2023-04-10T18:22:26.958Z,98649.91
2023-04-10T18:24:30.394Z,98648.79
2023-04-10T18:26:34.799Z,98647.77
2023-04-10T18:28:38.698Z,98650.23
2023-04-10T18:30:42.494Z,98648.23
2023-04-10T18:32:47.098Z,98648.34
2023-04-10T18:34:50.400Z,98648.61
2023-04-10T18:36:54.099Z,98644.56
2023-04-10T18:38:58.023Z,98642.52
2023-04-10T18:41:00.857Z,98644.88
2023-04-10T18:43:03.753Z,98638.89
2023-04-10T18:45:07.187Z,98635.45
2023-04-10T18:47:11.503Z,98636.25
2023-04-10T18:49:14.355Z,98630.42
2023-04-10T18:51:17.114Z,98632.91
2023-04-10T18:53:20.923Z,98636.55
2023-04-10T18:55:23.711Z,98634.42
2023-04-10T18:57:27.441Z,98638.23
2023-04-10T18:59:30.681Z,98631.98
2023-04-10T19:01:34.157Z,98628.30
2023-04-10T19:03:39.375Z,98625.63
2023-04-10T19:05:43.662Z,98621.40
2023-04-10T19:08:00.610Z,98614.04
2023-04-10T19:10:08.655Z,98616.73
2023-04-10T19:12:11.295Z,98616.99
2023-04-10T19:14:13.883Z,98606.94
2023-04-10T19:16:19.420Z,98600.41
2023-04-10T19:18:22.404Z,98596.87
2023-04-10T19:20:50.208Z,98602.16
2023-04-10T19:22:48.048Z,98610.16
2023-04-10T19:24:50.811Z,98613.80
2023-04-10T19:26:55.178Z,98615.02
2023-04-10T19:28:59.324Z,98615.89
2023-04-10T19:31:02.217Z,98616.89
2023-04-10T19:33:04.926Z,98616.58
2023-04-10T19:35:08.401Z,98615.77
2023-04-10T19:37:11.218Z,98611.48
2023-04-10T19:39:14.644Z,98595.98
2023-04-10T19:41:18.205Z,98585.09
2023-04-10T19:43:21.084Z,98578.42
2023-04-10T19:45:27.388Z,98573.95
2023-04-10T19:47:30.828Z,98578.06
2023-04-10T19:49:39.007Z,98576.60
2023-04-10T19:51:43.916Z,98579.61
2023-04-10T19:53:47.203Z,98580.70
2023-04-10T19:55:50.267Z,98580.87
2023-04-10T19:57:53.235Z,98579.73
2023-04-10T19:59:56.140Z,98574.85
2023-04-10T20:01:59.091Z,98574.98
2023-04-10T20:04:03.591Z,98572.14
2023-04-10T20:06:08.016Z,98567.74
2023-04-10T20:08:10.727Z,98558.26
2023-04-10T20:10:13.731Z,98555.05
2023-04-10T20:12:16.422Z,98564.27
2023-04-10T20:14:20.461Z,98575.15
2023-04-10T20:18:26.489Z,98586.64
2023-04-10T20:20:29.164Z,98577.74
2023-04-10T20:22:32.391Z,98577.25
2023-04-10T20:24:35.086Z,98573.88
2023-04-10T20:26:37.837Z,98567.26
2023-04-10T20:28:40.804Z,98559.16
2023-04-10T20:30:44.398Z,98553.86
2023-04-10T20:32:47.242Z,98546.67
2023-04-10T20:34:50.103Z,98528.91
2023-04-10T20:36:52.801Z,98526.40
2023-04-10T20:38:56.677Z,98524.20
2023-04-10T20:40:59.760Z,98526.78
2023-04-10T20:43:02.511Z,98523.80
2023-04-10T20:45:05.653Z,98529.05
2023-04-10T20:47:08.405Z,98530.29
2023-04-10T20:49:15.841Z,98524.50
2023-04-10T20:51:18.868Z,98518.41
2023-04-10T20:53:21.592Z,98512.21
2023-04-10T20:55:24.617Z,98508.42
2023-04-10T20:57:27.780Z,98501.67
2023-04-10T20:59:30.501Z,98503.53
2023-04-10T21:01:33.459Z,98498.92
2023-04-10T21:03:36.612Z,98488.52
2023-04-10T21:05:41.584Z,98483.88
2023-04-10T21:07:45.954Z,98491.94
2023-04-10T21:09:48.663Z,98502.02
2023-04-10T21:11:51.292Z,98495.83
2023-04-10T21:13:54.359Z,98488.59
2023-04-10T21:15:57.101Z,98485.37
2023-04-10T21:17:59.948Z,98483.27
2023-04-10T21:20:02.959Z,98486.81
2023-04-10T21:22:05.922Z,98482.58
2023-04-10T21:24:08.711Z,98474.95
2023-04-10T21:26:11.468Z,98468.13
2023-04-10T21:28:14.382Z,98463.70
2023-04-10T21:30:17.320Z,98458.41
2023-04-10T21:32:20.474Z,98453.05
2023-04-10T21:34:23.259Z,98445.91
2023-04-10T21:36:33.128Z,98432.14
2023-04-10T21:38:38.997Z,98425.74
2023-04-10T21:40:41.787Z,98424.15
2023-04-10T21:42:45.652Z,98423.17
2023-04-10T21:44:54.695Z,98425.07
2023-04-10T21:46:57.234Z,98424.30
2023-04-10T21:48:59.840Z,98430.02
2023-04-10T21:51:03.217Z,98432.48
2023-04-10T21:53:05.890Z,98436.34
2023-04-10T21:55:09.172Z,98435.83
2023-04-10T21:57:11.905Z,98436.77
2023-04-10T21:59:14.531Z,98428.86
2023-04-10T22:01:17.134Z,98427.48
2023-04-10T22:03:21.893Z,98423.29
2023-04-10T22:05:25.948Z,98426.33
2023-04-10T22:07:29.460Z,98424.66
2023-04-10T22:09:32.179Z,98421.46
2023-04-10T22:11:37.041Z,98416.83
2023-04-10T22:13:39.906Z,98419.18
2023-04-10T22:15:42.634Z,98416.30
2023-04-10T22:17:45.701Z,98414.09
2023-04-10T22:19:48.783Z,98410.98
2023-04-10T22:21:52.596Z,98398.91
2023-04-10T22:23:55.381Z,98395.09
2023-04-10T22:26:00.810Z,98397.18
2023-04-10T22:28:03.575Z,98391.43
2023-04-10T22:30:07.143Z,98395.85
2023-04-10T22:32:09.844Z,98384.80
2023-04-10T22:34:12.623Z,98375.48
2023-04-10T22:36:15.284Z,98374.83
2023-04-10T22:38:17.920Z,98370.73
2023-04-10T22:40:20.654Z,98368.73
2023-04-10T22:42:23.945Z,98356.95
2023-04-10T22:44:26.691Z,98351.33
2023-04-10T22:46:29.607Z,98351.09
2023-04-10T22:48:32.551Z,98347.23
2023-04-10T22:50:35.423Z,98347.93
2023-04-10T22:52:38.443Z,98349.86
2023-04-10T22:54:41.186Z,98351.71
2023-04-10T22:56:44.306Z,98345.91
2023-04-10T22:58:47.372Z,98341.48
2023-04-10T23:00:50.446Z,98340.67
2023-04-10T23:02:54.057Z,98342.98
2023-04-10T23:05:01.165Z,98334.85
2023-04-10T23:07:03.899Z,98329.43
2023-04-10T23:09:06.474Z,98326.76
2023-04-10T23:11:09.191Z,98319.41
2023-04-10T23:13:11.852Z,98314.70
2023-04-10T23:15:14.538Z,98309.98
2023-04-10T23:17:17.206Z,98304.28
2023-04-10T23:19:19.841Z,98290.83
2023-04-10T23:21:22.685Z,98273.02
2023-04-10T23:23:25.390Z,98242.89
2023-04-10T23:25:28.061Z,98221.27
2023-04-10T23:27:30.647Z,98206.60
2023-04-10T23:29:33.836Z,98212.67
2023-04-10T23:31:36.481Z,98213.20
2023-04-10T23:33:39.133Z,98212.22
2023-04-10T23:35:41.840Z,98224.27
2023-04-10T23:37:44.524Z,98229.20
2023-04-10T23:39:47.581Z,98232.20
2023-04-10T23:41:50.340Z,98234.98
2023-04-10T23:43:52.890Z,98251.07
2023-04-10T23:45:55.549Z,98250.79
2023-04-10T23:47:58.734Z,98248.77
2023-04-10T23:50:01.891Z,98257.13
2023-04-10T23:52:04.644Z,98264.23
2023-04-10T23:54:07.345Z,98253.95
2023-04-10T23:56:10.362Z,98252.79
2023-04-10T23:58:13.156Z,98246.55
